sensor_id;sensor_type;location;lat;lon;timestamp;temperature;humidity
34147;DHT22;20423;49.448;9.056;2022-11-15T00:01:30;8.20;99.90
34147;DHT22;20423;49.448;9.056;2022-11-15T00:04:14;8.20;99.90
34147;DHT22;20423;49.448;9.056;2022-11-15T00:06:59;8.30;99.90
34147;DHT22;20423;49.448;9.056;2022-11-15T00:09:43;8.30;99.90
34147;DHT22;20423;49.448;9.056;2022-11-15T00:12:28;8.40;99.90
34147;DHT22;20423;49.448;9.056;2022-11-15T00:15:12;8.40;99.90
34147;DHT22;20423;49.448;9.056;2022-11-15T00:17:56;8.40;99.90
34147;DHT22;20423;49.448;9.056;2022-11-15T00:20:40;8.30;99.90
34147;DHT22;20423;49.448;9.056;2022-11-15T00:23:25;8.30;99.90
34147;DHT22;20423;49.448;9.056;2022-11-15T00:26:13;8.40;99.90
34147;DHT22;20423;49.448;9.056;2022-11-15T00:28:58;8.60;99.90
34147;DHT22;20423;49.448;9.056;2022-11-15T00:31:42;8.50;99.90
34147;DHT22;20423;49.448;9.056;2022-11-15T00:34:26;8.50;99.90
34147;DHT22;20423;49.448;9.056;2022-11-15T00:37:10;8.50;99.90
34147;DHT22;20423;49.448;9.056;2022-11-15T00:39:54;8.40;99.90
34147;DHT22;20423;49.448;9.056;2022-11-15T00:42:39;8.30;99.90
34147;DHT22;20423;49.448;9.056;2022-11-15T00:45:25;8.30;99.90
34147;DHT22;20423;49.448;9.056;2022-11-15T00:48:09;8.20;99.90
34147;DHT22;20423;49.448;9.056;2022-11-15T00:50:53;8.10;99.90
34147;DHT22;20423;49.448;9.056;2022-11-15T00:53:37;8.10;99.90
34147;DHT22;20423;49.448;9.056;2022-11-15T00:56:21;8.00;99.90
34147;DHT22;20423;49.448;9.056;2022-11-15T00:59:05;8.00;99.90
34147;DHT22;20423;49.448;9.056;2022-11-15T01:01:49;7.80;99.90
34147;DHT22;20423;49.448;9.056;2022-11-15T01:04:33;7.70;99.90
34147;DHT22;20423;49.448;9.056;2022-11-15T01:07:17;7.60;99.90
34147;DHT22;20423;49.448;9.056;2022-11-15T01:10:03;7.50;99.90
34147;DHT22;20423;49.448;9.056;2022-11-15T01:12:47;7.50;99.90
34147;DHT22;20423;49.448;9.056;2022-11-15T01:15:31;7.40;99.90
34147;DHT22;20423;49.448;9.056;2022-11-15T01:18:15;7.30;99.90
34147;DHT22;20423;49.448;9.056;2022-11-15T01:20:59;7.40;99.90
34147;DHT22;20423;49.448;9.056;2022-11-15T01:23:44;7.30;99.90
34147;DHT22;20423;49.448;9.056;2022-11-15T01:26:28;7.30;99.90
34147;DHT22;20423;49.448;9.056;2022-11-15T01:29:12;7.20;99.90
34147;DHT22;20423;49.448;9.056;2022-11-15T01:31:57;7.20;99.90
34147;DHT22;20423;49.448;9.056;2022-11-15T01:34:41;7.10;99.90
34147;DHT22;20423;49.448;9.056;2022-11-15T01:37:25;7.10;99.90
34147;DHT22;20423;49.448;9.056;2022-11-15T01:40:10;7.10;99.90
34147;DHT22;20423;49.448;9.056;2022-11-15T01:42:54;7.10;99.90
34147;DHT22;20423;49.448;9.056;2022-11-15T01:45:38;7.20;99.90
34147;DHT22;20423;49.448;9.056;2022-11-15T01:48:26;7.10;99.90
34147;DHT22;20423;49.448;9.056;2022-11-15T01:51:16;7.10;99.90
34147;DHT22;20423;49.448;9.056;2022-11-15T01:54:08;7.00;99.90
34147;DHT22;20423;49.448;9.056;2022-11-15T01:57:01;6.80;99.90
34147;DHT22;20423;49.448;9.056;2022-11-15T01:59:47;6.70;99.90
34147;DHT22;20423;49.448;9.056;2022-11-15T02:02:32;6.70;99.90
34147;DHT22;20423;49.448;9.056;2022-11-15T02:05:25;6.70;99.90
34147;DHT22;20423;49.448;9.056;2022-11-15T02:08:10;6.80;99.90
34147;DHT22;20423;49.448;9.056;2022-11-15T02:11:07;6.90;99.90
34147;DHT22;20423;49.448;9.056;2022-11-15T02:13:51;7.20;99.90
34147;DHT22;20423;49.448;9.056;2022-11-15T02:17:02;7.40;99.90
34147;DHT22;20423;49.448;9.056;2022-11-15T02:26:34;7.70;99.90
34147;DHT22;20423;49.448;9.056;2022-11-15T02:29:42;7.70;99.90
34147;DHT22;20423;49.448;9.056;2022-11-15T02:32:35;7.60;99.90
34147;DHT22;20423;49.448;9.056;2022-11-15T02:38:38;7.30;99.90
34147;DHT22;20423;49.448;9.056;2022-11-15T02:41:35;7.10;99.90
34147;DHT22;20423;49.448;9.056;2022-11-15T02:44:31;6.90;99.90
34147;DHT22;20423;49.448;9.056;2022-11-15T02:47:17;6.80;99.90
34147;DHT22;20423;49.448;9.056;2022-11-15T02:50:06;6.70;99.90
34147;DHT22;20423;49.448;9.056;2022-11-15T02:52:51;6.70;99.90
34147;DHT22;20423;49.448;9.056;2022-11-15T02:55:43;6.60;99.90
34147;DHT22;20423;49.448;9.056;2022-11-15T03:07:33;6.40;99.90
34147;DHT22;20423;49.448;9.056;2022-11-15T03:10:31;6.40;99.90
34147;DHT22;20423;49.448;9.056;2022-11-15T03:16:10;6.40;99.90
34147;DHT22;20423;49.448;9.056;2022-11-15T03:22:47;6.40;99.90
34147;DHT22;20423;49.448;9.056;2022-11-15T03:25:34;6.40;99.90
34147;DHT22;20423;49.448;9.056;2022-11-15T03:28:23;6.40;99.90
34147;DHT22;20423;49.448;9.056;2022-11-15T03:31:11;6.40;99.90
34147;DHT22;20423;49.448;9.056;2022-11-15T03:34:41;6.40;99.90
34147;DHT22;20423;49.448;9.056;2022-11-15T03:40:22;6.50;99.90
34147;DHT22;20423;49.448;9.056;2022-11-15T03:46:06;6.80;99.90
34147;DHT22;20423;49.448;9.056;2022-11-15T03:49:01;7.00;99.90
34147;DHT22;20423;49.448;9.056;2022-11-15T03:51:48;7.10;99.90
34147;DHT22;20423;49.448;9.056;2022-11-15T03:54:32;7.10;99.90
34147;DHT22;20423;49.448;9.056;2022-11-15T03:57:17;7.20;99.90
34147;DHT22;20423;49.448;9.056;2022-11-15T04:00:01;7.30;99.90
34147;DHT22;20423;49.448;9.056;2022-11-15T04:02:45;7.30;99.90
34147;DHT22;20423;49.448;9.056;2022-11-15T04:05:30;7.30;99.90
34147;DHT22;20423;49.448;9.056;2022-11-15T04:08:14;7.40;99.90
34147;DHT22;20423;49.448;9.056;2022-11-15T04:10:58;7.40;99.90
34147;DHT22;20423;49.448;9.056;2022-11-15T04:13:42;7.40;99.90
34147;DHT22;20423;49.448;9.056;2022-11-15T04:16:26;7.50;99.90
34147;DHT22;20423;49.448;9.056;2022-11-15T04:19:10;7.60;99.90
34147;DHT22;20423;49.448;9.056;2022-11-15T04:22:13;7.50;99.90
34147;DHT22;20423;49.448;9.056;2022-11-15T04:28:41;7.60;99.90
34147;DHT22;20423;49.448;9.056;2022-11-15T04:31:44;7.60;99.90
34147;DHT22;20423;49.448;9.056;2022-11-15T04:34:28;7.70;99.90
34147;DHT22;20423;49.448;9.056;2022-11-15T04:37:12;7.80;99.90
34147;DHT22;20423;49.448;9.056;2022-11-15T04:39:56;7.80;99.90
34147;DHT22;20423;49.448;9.056;2022-11-15T04:42:41;7.90;99.90
34147;DHT22;20423;49.448;9.056;2022-11-15T04:45:26;7.90;99.90
34147;DHT22;20423;49.448;9.056;2022-11-15T04:48:10;7.90;99.90
34147;DHT22;20423;49.448;9.056;2022-11-15T04:50:54;8.00;99.90
34147;DHT22;20423;49.448;9.056;2022-11-15T04:53:39;8.10;99.90
34147;DHT22;20423;49.448;9.056;2022-11-15T04:56:23;8.00;99.90
34147;DHT22;20423;49.448;9.056;2022-11-15T04:59:07;8.00;99.90
34147;DHT22;20423;49.448;9.056;2022-11-15T05:01:51;7.90;99.90
34147;DHT22;20423;49.448;9.056;2022-11-15T05:04:35;7.90;99.90
34147;DHT22;20423;49.448;9.056;2022-11-15T05:07:19;7.90;99.90
34147;DHT22;20423;49.448;9.056;2022-11-15T05:10:04;7.90;99.90
34147;DHT22;20423;49.448;9.056;2022-11-15T05:12:48;7.90;99.90
34147;DHT22;20423;49.448;9.056;2022-11-15T05:15:32;8.00;99.90
34147;DHT22;20423;49.448;9.056;2022-11-15T05:18:16;8.00;99.90
34147;DHT22;20423;49.448;9.056;2022-11-15T05:21:04;8.00;99.90
34147;DHT22;20423;49.448;9.056;2022-11-15T05:23:49;8.10;99.90
34147;DHT22;20423;49.448;9.056;2022-11-15T05:26:34;8.10;99.90
34147;DHT22;20423;49.448;9.056;2022-11-15T05:29:18;8.10;99.90
34147;DHT22;20423;49.448;9.056;2022-11-15T05:32:05;8.10;99.90
34147;DHT22;20423;49.448;9.056;2022-11-15T05:34:50;8.00;99.90
34147;DHT22;20423;49.448;9.056;2022-11-15T05:37:34;7.90;99.90
34147;DHT22;20423;49.448;9.056;2022-11-15T05:40:18;7.70;99.90
34147;DHT22;20423;49.448;9.056;2022-11-15T05:43:03;7.60;99.90
34147;DHT22;20423;49.448;9.056;2022-11-15T05:45:48;7.50;99.90
34147;DHT22;20423;49.448;9.056;2022-11-15T05:48:34;7.40;99.90
34147;DHT22;20423;49.448;9.056;2022-11-15T05:51:21;7.20;99.90
34147;DHT22;20423;49.448;9.056;2022-11-15T05:54:05;7.00;99.90
34147;DHT22;20423;49.448;9.056;2022-11-15T05:56:49;6.80;99.90
34147;DHT22;20423;49.448;9.056;2022-11-15T05:59:34;6.70;99.90
34147;DHT22;20423;49.448;9.056;2022-11-15T06:02:19;6.70;99.90
34147;DHT22;20423;49.448;9.056;2022-11-15T06:05:04;6.60;99.90
34147;DHT22;20423;49.448;9.056;2022-11-15T06:07:48;6.60;99.90
34147;DHT22;20423;49.448;9.056;2022-11-15T06:10:33;6.60;99.90
34147;DHT22;20423;49.448;9.056;2022-11-15T06:13:41;6.60;99.90
34147;DHT22;20423;49.448;9.056;2022-11-15T06:16:25;6.50;99.90
34147;DHT22;20423;49.448;9.056;2022-11-15T06:19:10;6.40;99.90
34147;DHT22;20423;49.448;9.056;2022-11-15T06:21:54;6.40;99.90
34147;DHT22;20423;49.448;9.056;2022-11-15T06:24:39;6.40;99.90
34147;DHT22;20423;49.448;9.056;2022-11-15T06:27:23;6.60;99.90
34147;DHT22;20423;49.448;9.056;2022-11-15T06:30:08;6.90;99.90
34147;DHT22;20423;49.448;9.056;2022-11-15T06:32:58;7.20;99.90
34147;DHT22;20423;49.448;9.056;2022-11-15T06:35:43;7.50;99.90
34147;DHT22;20423;49.448;9.056;2022-11-15T06:38:27;7.60;99.90
34147;DHT22;20423;49.448;9.056;2022-11-15T06:41:13;7.70;99.90
34147;DHT22;20423;49.448;9.056;2022-11-15T06:43:57;7.70;99.90
34147;DHT22;20423;49.448;9.056;2022-11-15T06:46:42;7.60;99.90
34147;DHT22;20423;49.448;9.056;2022-11-15T06:49:26;7.40;99.90
34147;DHT22;20423;49.448;9.056;2022-11-15T06:52:10;7.30;99.90
34147;DHT22;20423;49.448;9.056;2022-11-15T06:54:54;7.10;99.90
34147;DHT22;20423;49.448;9.056;2022-11-15T07:01:26;6.90;99.90
34147;DHT22;20423;49.448;9.056;2022-11-15T07:04:10;6.70;99.90
34147;DHT22;20423;49.448;9.056;2022-11-15T07:06:54;6.60;99.90
34147;DHT22;20423;49.448;9.056;2022-11-15T07:09:38;6.50;99.90
34147;DHT22;20423;49.448;9.056;2022-11-15T07:12:22;6.50;99.90
34147;DHT22;20423;49.448;9.056;2022-11-15T07:15:07;6.40;99.90
34147;DHT22;20423;49.448;9.056;2022-11-15T07:17:51;6.50;99.90
34147;DHT22;20423;49.448;9.056;2022-11-15T07:20:36;6.80;99.90
34147;DHT22;20423;49.448;9.056;2022-11-15T07:23:20;7.00;99.90
34147;DHT22;20423;49.448;9.056;2022-11-15T07:26:05;7.30;99.90
34147;DHT22;20423;49.448;9.056;2022-11-15T07:28:50;7.50;99.90
34147;DHT22;20423;49.448;9.056;2022-11-15T07:31:35;7.60;99.90
34147;DHT22;20423;49.448;9.056;2022-11-15T07:34:19;7.70;99.90
34147;DHT22;20423;49.448;9.056;2022-11-15T07:37:04;7.70;99.90
34147;DHT22;20423;49.448;9.056;2022-11-15T07:39:48;7.80;99.90
34147;DHT22;20423;49.448;9.056;2022-11-15T07:42:32;7.70;99.90
34147;DHT22;20423;49.448;9.056;2022-11-15T07:45:43;7.70;99.90
34147;DHT22;20423;49.448;9.056;2022-11-15T07:48:28;7.70;99.90
34147;DHT22;20423;49.448;9.056;2022-11-15T07:51:21;7.80;99.90
34147;DHT22;20423;49.448;9.056;2022-11-15T07:54:05;7.90;99.90
34147;DHT22;20423;49.448;9.056;2022-11-15T07:56:50;8.00;99.90
34147;DHT22;20423;49.448;9.056;2022-11-15T07:59:34;8.10;99.90
34147;DHT22;20423;49.448;9.056;2022-11-15T08:02:25;8.20;99.90
34147;DHT22;20423;49.448;9.056;2022-11-15T08:05:09;8.30;99.90
34147;DHT22;20423;49.448;9.056;2022-11-15T08:07:55;8.40;99.90
34147;DHT22;20423;49.448;9.056;2022-11-15T08:10:41;8.40;99.90
34147;DHT22;20423;49.448;9.056;2022-11-15T08:13:25;8.40;99.90
34147;DHT22;20423;49.448;9.056;2022-11-15T08:16:09;8.50;99.90
34147;DHT22;20423;49.448;9.056;2022-11-15T08:18:56;8.60;99.90
34147;DHT22;20423;49.448;9.056;2022-11-15T08:21:40;8.90;99.90
34147;DHT22;20423;49.448;9.056;2022-11-15T08:24:24;9.20;99.90
34147;DHT22;20423;49.448;9.056;2022-11-15T08:27:24;9.40;99.90
34147;DHT22;20423;49.448;9.056;2022-11-15T08:30:08;9.50;99.90
34147;DHT22;20423;49.448;9.056;2022-11-15T08:32:55;9.60;99.90
34147;DHT22;20423;49.448;9.056;2022-11-15T08:35:40;9.70;99.90
34147;DHT22;20423;49.448;9.056;2022-11-15T08:38:25;9.90;99.90
34147;DHT22;20423;49.448;9.056;2022-11-15T08:41:13;10.00;99.90
34147;DHT22;20423;49.448;9.056;2022-11-15T08:43:59;10.10;99.90
34147;DHT22;20423;49.448;9.056;2022-11-15T08:46:46;10.10;99.90
34147;DHT22;20423;49.448;9.056;2022-11-15T08:49:30;10.10;99.90
34147;DHT22;20423;49.448;9.056;2022-11-15T08:52:14;10.10;99.90
34147;DHT22;20423;49.448;9.056;2022-11-15T08:55:00;10.00;99.90
34147;DHT22;20423;49.448;9.056;2022-11-15T08:57:44;10.00;99.90
34147;DHT22;20423;49.448;9.056;2022-11-15T09:00:29;10.10;99.90
34147;DHT22;20423;49.448;9.056;2022-11-15T09:03:13;10.20;99.90
34147;DHT22;20423;49.448;9.056;2022-11-15T09:06:16;10.20;99.90
34147;DHT22;20423;49.448;9.056;2022-11-15T09:09:01;10.40;99.90
34147;DHT22;20423;49.448;9.056;2022-11-15T09:11:45;10.50;99.90
34147;DHT22;20423;49.448;9.056;2022-11-15T09:14:30;10.60;99.90
34147;DHT22;20423;49.448;9.056;2022-11-15T09:17:14;10.70;99.90
34147;DHT22;20423;49.448;9.056;2022-11-15T09:19:58;10.80;99.90
34147;DHT22;20423;49.448;9.056;2022-11-15T09:22:43;10.80;99.90
34147;DHT22;20423;49.448;9.056;2022-11-15T09:25:27;10.80;99.90
34147;DHT22;20423;49.448;9.056;2022-11-15T09:28:12;10.70;99.90
34147;DHT22;20423;49.448;9.056;2022-11-15T09:31:01;10.80;99.90
34147;DHT22;20423;49.448;9.056;2022-11-15T09:33:45;10.70;99.90
34147;DHT22;20423;49.448;9.056;2022-11-15T09:36:30;10.80;99.90
34147;DHT22;20423;49.448;9.056;2022-11-15T09:39:14;10.90;99.90
34147;DHT22;20423;49.448;9.056;2022-11-15T09:45:22;10.90;99.90
34147;DHT22;20423;49.448;9.056;2022-11-15T09:48:34;11.00;99.90
34147;DHT22;20423;49.448;9.056;2022-11-15T09:51:39;11.20;99.90
34147;DHT22;20423;49.448;9.056;2022-11-15T09:56:42;11.50;99.90
34147;DHT22;20423;49.448;9.056;2022-11-15T10:04:28;11.50;99.90
34147;DHT22;20423;49.448;9.056;2022-11-15T10:07:05;11.60;99.90
34147;DHT22;20423;49.448;9.056;2022-11-15T10:09:45;11.50;99.90
34147;DHT22;20423;49.448;9.056;2022-11-15T10:12:14;11.60;99.90
34147;DHT22;20423;49.448;9.056;2022-11-15T10:14:41;11.80;99.90
34147;DHT22;20423;49.448;9.056;2022-11-15T10:22:40;12.40;99.90
34147;DHT22;20423;49.448;9.056;2022-11-15T10:27:40;12.20;99.90
34147;DHT22;20423;49.448;9.056;2022-11-15T10:30:12;12.40;99.90
34147;DHT22;20423;49.448;9.056;2022-11-15T10:32:42;12.60;99.90
34147;DHT22;20423;49.448;9.056;2022-11-15T10:35:22;12.50;99.90
34147;DHT22;20423;49.448;9.056;2022-11-15T10:37:49;12.50;99.90
34147;DHT22;20423;49.448;9.056;2022-11-15T10:40:24;12.60;99.90
34147;DHT22;20423;49.448;9.056;2022-11-15T10:45:35;12.80;99.90
34147;DHT22;20423;49.448;9.056;2022-11-15T10:50:44;12.90;99.90
34147;DHT22;20423;49.448;9.056;2022-11-15T10:55:50;13.10;99.90
34147;DHT22;20423;49.448;9.056;2022-11-15T10:58:36;13.10;99.90
34147;DHT22;20423;49.448;9.056;2022-11-15T11:03:40;12.90;99.90
34147;DHT22;20423;49.448;9.056;2022-11-15T11:06:16;12.90;99.90
34147;DHT22;20423;49.448;9.056;2022-11-15T11:09:00;13.00;99.90
34147;DHT22;20423;49.448;9.056;2022-11-15T11:11:47;13.00;99.90
34147;DHT22;20423;49.448;9.056;2022-11-15T11:17:22;13.00;99.90
34147;DHT22;20423;49.448;9.056;2022-11-15T11:23:02;13.20;99.90
34147;DHT22;20423;49.448;9.056;2022-11-15T11:47:47;13.40;99.90
34147;DHT22;20423;49.448;9.056;2022-11-15T11:50:23;13.30;99.90
34147;DHT22;20423;49.448;9.056;2022-11-15T11:53:12;13.30;99.90
34147;DHT22;20423;49.448;9.056;2022-11-15T11:55:42;13.20;99.90
34147;DHT22;20423;49.448;9.056;2022-11-15T11:58:16;13.00;99.90
34147;DHT22;20423;49.448;9.056;2022-11-15T12:01:48;12.90;99.90
34147;DHT22;20423;49.448;9.056;2022-11-15T12:07:01;12.50;99.90
34147;DHT22;20423;49.448;9.056;2022-11-15T12:14:47;12.20;99.90
34147;DHT22;20423;49.448;9.056;2022-11-15T12:17:16;12.20;99.90
34147;DHT22;20423;49.448;9.056;2022-11-15T12:19:43;12.10;99.90
34147;DHT22;20423;49.448;9.056;2022-11-15T12:22:26;12.10;99.90
34147;DHT22;20423;49.448;9.056;2022-11-15T12:25:58;12.10;99.90
34147;DHT22;20423;49.448;9.056;2022-11-15T12:28:43;12.20;99.90
34147;DHT22;20423;49.448;9.056;2022-11-15T12:33:44;12.30;99.90
34147;DHT22;20423;49.448;9.056;2022-11-15T12:36:12;12.30;99.90
34147;DHT22;20423;49.448;9.056;2022-11-15T12:38:59;12.40;99.90
34147;DHT22;20423;49.448;9.056;2022-11-15T12:41:28;12.20;99.90
34147;DHT22;20423;49.448;9.056;2022-11-15T12:43:55;12.30;99.90
34147;DHT22;20423;49.448;9.056;2022-11-15T12:48:57;12.30;99.90
34147;DHT22;20423;49.448;9.056;2022-11-15T12:59:55;12.50;99.90
34147;DHT22;20423;49.448;9.056;2022-11-15T13:05:51;12.60;99.90
34147;DHT22;20423;49.448;9.056;2022-11-15T13:08:07;12.40;99.90
34147;DHT22;20423;49.448;9.056;2022-11-15T13:10:33;12.20;99.90
34147;DHT22;20423;49.448;9.056;2022-11-15T13:13:08;12.20;99.90
34147;DHT22;20423;49.448;9.056;2022-11-15T13:15:58;12.20;99.90
34147;DHT22;20423;49.448;9.056;2022-11-15T13:22:12;12.20;99.90
34147;DHT22;20423;49.448;9.056;2022-11-15T13:24:57;12.10;99.90
34147;DHT22;20423;49.448;9.056;2022-11-15T13:27:23;12.00;99.90
34147;DHT22;20423;49.448;9.056;2022-11-15T13:29:50;12.10;99.90
34147;DHT22;20423;49.448;9.056;2022-11-15T13:32:16;12.00;99.90
34147;DHT22;20423;49.448;9.056;2022-11-15T13:34:47;11.80;99.90
34147;DHT22;20423;49.448;9.056;2022-11-15T13:39:45;11.70;99.90
34147;DHT22;20423;49.448;9.056;2022-11-15T13:42:19;11.70;99.90
34147;DHT22;20423;49.448;9.056;2022-11-15T13:45:00;11.70;99.90
34147;DHT22;20423;49.448;9.056;2022-11-15T13:47:27;11.60;99.90
34147;DHT22;20423;49.448;9.056;2022-11-15T13:49:56;11.60;99.90
34147;DHT22;20423;49.448;9.056;2022-11-15T13:52:27;11.60;99.90
34147;DHT22;20423;49.448;9.056;2022-11-15T13:58:06;11.60;99.90
34147;DHT22;20423;49.448;9.056;2022-11-15T14:00:40;11.80;99.90
34147;DHT22;20423;49.448;9.056;2022-11-15T14:03:12;11.80;99.90
34147;DHT22;20423;49.448;9.056;2022-11-15T14:05:41;11.90;99.90
34147;DHT22;20423;49.448;9.056;2022-11-15T14:10:44;11.80;99.90
34147;DHT22;20423;49.448;9.056;2022-11-15T14:13:29;11.60;99.90
34147;DHT22;20423;49.448;9.056;2022-11-15T14:16:18;11.50;99.90
34147;DHT22;20423;49.448;9.056;2022-11-15T14:21:41;11.40;99.90
34147;DHT22;20423;49.448;9.056;2022-11-15T14:24:30;11.40;99.90
34147;DHT22;20423;49.448;9.056;2022-11-15T14:26:57;11.50;99.90
34147;DHT22;20423;49.448;9.056;2022-11-15T14:29:24;11.50;99.90
34147;DHT22;20423;49.448;9.056;2022-11-15T14:31:50;11.50;99.90
34147;DHT22;20423;49.448;9.056;2022-11-15T14:34:16;11.50;99.90
34147;DHT22;20423;49.448;9.056;2022-11-15T14:36:42;11.40;99.90
34147;DHT22;20423;49.448;9.056;2022-11-15T14:39:08;11.30;99.90
34147;DHT22;20423;49.448;9.056;2022-11-15T14:41:36;11.20;99.90
34147;DHT22;20423;49.448;9.056;2022-11-15T14:44:05;11.10;99.90
34147;DHT22;20423;49.448;9.056;2022-11-15T14:46:31;11.00;99.90
34147;DHT22;20423;49.448;9.056;2022-11-15T14:48:57;10.90;99.90
34147;DHT22;20423;49.448;9.056;2022-11-15T14:51:23;10.90;99.90
34147;DHT22;20423;49.448;9.056;2022-11-15T14:53:49;10.90;99.90
34147;DHT22;20423;49.448;9.056;2022-11-15T14:56:15;10.90;99.90
34147;DHT22;20423;49.448;9.056;2022-11-15T14:58:42;10.80;99.90
34147;DHT22;20423;49.448;9.056;2022-11-15T15:01:17;10.80;99.90
34147;DHT22;20423;49.448;9.056;2022-11-15T15:03:44;10.80;99.90
34147;DHT22;20423;49.448;9.056;2022-11-15T15:06:10;10.70;99.90
34147;DHT22;20423;49.448;9.056;2022-11-15T15:08:39;10.70;99.90
34147;DHT22;20423;49.448;9.056;2022-11-15T15:11:12;10.70;99.90
34147;DHT22;20423;49.448;9.056;2022-11-15T15:13:40;10.70;99.90
34147;DHT22;20423;49.448;9.056;2022-11-15T15:16:05;10.60;99.90
34147;DHT22;20423;49.448;9.056;2022-11-15T15:18:31;10.70;99.90
34147;DHT22;20423;49.448;9.056;2022-11-15T15:20:58;10.60;99.90
34147;DHT22;20423;49.448;9.056;2022-11-15T15:23:27;10.60;99.90
34147;DHT22;20423;49.448;9.056;2022-11-15T15:25:56;10.60;99.90
34147;DHT22;20423;49.448;9.056;2022-11-15T15:28:22;10.50;99.90
34147;DHT22;20423;49.448;9.056;2022-11-15T15:30:48;10.50;99.90
34147;DHT22;20423;49.448;9.056;2022-11-15T15:33:15;10.40;99.90
34147;DHT22;20423;49.448;9.056;2022-11-15T15:35:41;10.40;99.90
34147;DHT22;20423;49.448;9.056;2022-11-15T15:38:12;10.30;99.90
34147;DHT22;20423;49.448;9.056;2022-11-15T15:40:38;10.30;99.90
34147;DHT22;20423;49.448;9.056;2022-11-15T15:43:04;10.20;99.90
34147;DHT22;20423;49.448;9.056;2022-11-15T15:45:30;10.10;99.90
34147;DHT22;20423;49.448;9.056;2022-11-15T15:47:57;10.00;99.90
34147;DHT22;20423;49.448;9.056;2022-11-15T15:50:28;10.00;99.90
34147;DHT22;20423;49.448;9.056;2022-11-15T15:52:56;9.90;99.90
34147;DHT22;20423;49.448;9.056;2022-11-15T15:55:22;9.80;99.90
34147;DHT22;20423;49.448;9.056;2022-11-15T15:57:49;9.80;99.90
34147;DHT22;20423;49.448;9.056;2022-11-15T16:00:16;9.80;99.90
34147;DHT22;20423;49.448;9.056;2022-11-15T16:02:42;9.80;99.90
34147;DHT22;20423;49.448;9.056;2022-11-15T16:05:09;9.80;99.90
34147;DHT22;20423;49.448;9.056;2022-11-15T16:07:35;9.80;99.90
34147;DHT22;20423;49.448;9.056;2022-11-15T16:13:20;9.90;99.90
34147;DHT22;20423;49.448;9.056;2022-11-15T16:15:51;9.90;99.90
34147;DHT22;20423;49.448;9.056;2022-11-15T16:18:18;9.90;99.90
34147;DHT22;20423;49.448;9.056;2022-11-15T16:20:46;9.90;99.90
34147;DHT22;20423;49.448;9.056;2022-11-15T16:23:16;10.00;99.90
34147;DHT22;20423;49.448;9.056;2022-11-15T16:25:48;10.00;99.90
34147;DHT22;20423;49.448;9.056;2022-11-15T16:28:31;10.00;99.90
34147;DHT22;20423;49.448;9.056;2022-11-15T16:31:10;10.10;99.90
34147;DHT22;20423;49.448;9.056;2022-11-15T16:33:36;10.10;99.90
34147;DHT22;20423;49.448;9.056;2022-11-15T16:36:04;10.00;99.90
34147;DHT22;20423;49.448;9.056;2022-11-15T16:38:30;10.00;99.90
34147;DHT22;20423;49.448;9.056;2022-11-15T16:40:56;10.00;99.90
34147;DHT22;20423;49.448;9.056;2022-11-15T16:43:22;10.10;99.90
34147;DHT22;20423;49.448;9.056;2022-11-15T16:45:49;10.10;99.90
34147;DHT22;20423;49.448;9.056;2022-11-15T16:48:22;10.10;99.90
34147;DHT22;20423;49.448;9.056;2022-11-15T16:50:49;10.10;99.90
34147;DHT22;20423;49.448;9.056;2022-11-15T16:53:26;10.20;99.90
34147;DHT22;20423;49.448;9.056;2022-11-15T16:55:53;10.10;99.90
34147;DHT22;20423;49.448;9.056;2022-11-15T16:58:19;10.10;99.90
34147;DHT22;20423;49.448;9.056;2022-11-15T17:00:49;10.10;99.90
34147;DHT22;20423;49.448;9.056;2022-11-15T17:03:15;10.10;99.90
34147;DHT22;20423;49.448;9.056;2022-11-15T17:05:41;10.00;99.90
34147;DHT22;20423;49.448;9.056;2022-11-15T17:08:07;10.10;99.90
34147;DHT22;20423;49.448;9.056;2022-11-15T17:10:33;10.00;99.90
34147;DHT22;20423;49.448;9.056;2022-11-15T17:16:46;9.90;99.90
34147;DHT22;20423;49.448;9.056;2022-11-15T17:19:16;9.90;99.90
34147;DHT22;20423;49.448;9.056;2022-11-15T17:21:43;9.90;99.90
34147;DHT22;20423;49.448;9.056;2022-11-15T17:24:10;9.90;99.90
34147;DHT22;20423;49.448;9.056;2022-11-15T17:26:36;9.90;99.90
34147;DHT22;20423;49.448;9.056;2022-11-15T17:29:02;9.90;99.90
34147;DHT22;20423;49.448;9.056;2022-11-15T17:31:29;9.90;99.90
34147;DHT22;20423;49.448;9.056;2022-11-15T17:34:00;10.00;99.90
34147;DHT22;20423;49.448;9.056;2022-11-15T17:36:25;10.00;99.90
34147;DHT22;20423;49.448;9.056;2022-11-15T17:38:51;10.00;99.90
34147;DHT22;20423;49.448;9.056;2022-11-15T17:41:17;10.10;99.90
34147;DHT22;20423;49.448;9.056;2022-11-15T17:43:43;10.10;99.90
34147;DHT22;20423;49.448;9.056;2022-11-15T17:46:15;10.10;99.90
34147;DHT22;20423;49.448;9.056;2022-11-15T17:48:42;10.10;99.90
34147;DHT22;20423;49.448;9.056;2022-11-15T17:51:24;10.00;99.90
34147;DHT22;20423;49.448;9.056;2022-11-15T17:53:50;10.00;99.90
34147;DHT22;20423;49.448;9.056;2022-11-15T17:56:17;10.00;99.90
34147;DHT22;20423;49.448;9.056;2022-11-15T17:58:51;10.00;99.90
34147;DHT22;20423;49.448;9.056;2022-11-15T18:05:05;10.00;99.90
34147;DHT22;20423;49.448;9.056;2022-11-15T18:07:31;10.00;99.90
34147;DHT22;20423;49.448;9.056;2022-11-15T18:09:57;10.00;99.90
34147;DHT22;20423;49.448;9.056;2022-11-15T18:12:22;10.10;99.90
34147;DHT22;20423;49.448;9.056;2022-11-15T18:14:48;10.00;99.90
34147;DHT22;20423;49.448;9.056;2022-11-15T18:17:14;10.10;99.90
34147;DHT22;20423;49.448;9.056;2022-11-15T18:19:40;10.20;99.90
34147;DHT22;20423;49.448;9.056;2022-11-15T18:22:05;10.20;99.90
34147;DHT22;20423;49.448;9.056;2022-11-15T18:24:34;10.30;99.90
34147;DHT22;20423;49.448;9.056;2022-11-15T18:27:04;10.30;99.90
34147;DHT22;20423;49.448;9.056;2022-11-15T18:29:30;10.20;99.90
34147;DHT22;20423;49.448;9.056;2022-11-15T18:31:59;10.20;99.90
34147;DHT22;20423;49.448;9.056;2022-11-15T18:34:28;10.10;99.90
34147;DHT22;20423;49.448;9.056;2022-11-15T18:36:57;10.20;99.90
34147;DHT22;20423;49.448;9.056;2022-11-15T18:39:22;10.20;99.90
34147;DHT22;20423;49.448;9.056;2022-11-15T18:41:48;10.20;99.90
34147;DHT22;20423;49.448;9.056;2022-11-15T18:44:16;10.20;99.90
34147;DHT22;20423;49.448;9.056;2022-11-15T18:46:42;10.10;99.90
34147;DHT22;20423;49.448;9.056;2022-11-15T18:49:11;10.10;99.90
34147;DHT22;20423;49.448;9.056;2022-11-15T18:51:37;10.10;99.90
34147;DHT22;20423;49.448;9.056;2022-11-15T18:54:07;10.00;99.90
34147;DHT22;20423;49.448;9.056;2022-11-15T18:56:34;10.00;99.90
34147;DHT22;20423;49.448;9.056;2022-11-15T18:59:18;9.90;99.90
34147;DHT22;20423;49.448;9.056;2022-11-15T19:01:45;10.00;99.90
34147;DHT22;20423;49.448;9.056;2022-11-15T19:04:17;10.00;99.90
34147;DHT22;20423;49.448;9.056;2022-11-15T19:06:45;10.00;99.90
34147;DHT22;20423;49.448;9.056;2022-11-15T19:09:13;10.00;99.90
34147;DHT22;20423;49.448;9.056;2022-11-15T19:11:43;10.00;99.90
34147;DHT22;20423;49.448;9.056;2022-11-15T19:14:11;10.00;99.90
34147;DHT22;20423;49.448;9.056;2022-11-15T19:16:42;10.00;99.90
34147;DHT22;20423;49.448;9.056;2022-11-15T19:19:16;10.00;99.90